sensor_id;sensor_type;location;lat;lon;timestamp;P1;durP1;ratioP1;P2;durP2;ratioP2
13112;SDS011;6622;49.752;6.100;2022-09-01T00:01:18;3.83;;;3.07;;
13112;SDS011;6622;49.752;6.100;2022-09-01T00:03:46;7.47;;;3.63;;
13112;SDS011;6622;49.752;6.100;2022-09-01T00:06:15;4.67;;;3.73;;
13112;SDS011;6622;49.752;6.100;2022-09-01T00:08:41;3.97;;;3.33;;
13112;SDS011;6622;49.752;6.100;2022-09-01T00:11:08;6.40;;;3.47;;
13112;SDS011;6622;49.752;6.100;2022-09-01T00:13:34;5.13;;;3.30;;
13112;SDS011;6622;49.752;6.100;2022-09-01T00:16:01;4.77;;;2.93;;
13112;SDS011;6622;49.752;6.100;2022-09-01T00:18:28;3.77;;;2.80;;
13112;SDS011;6622;49.752;6.100;2022-09-01T00:20:55;4.07;;;3.53;;
13112;SDS011;6622;49.752;6.100;2022-09-01T00:23:22;4.00;;;3.30;;
13112;SDS011;6622;49.752;6.100;2022-09-01T00:25:48;7.47;;;3.90;;
13112;SDS011;6622;49.752;6.100;2022-09-01T00:28:15;3.73;;;3.33;;
13112;SDS011;6622;49.752;6.100;2022-09-01T00:30:41;5.23;;;2.87;;
13112;SDS011;6622;49.752;6.100;2022-09-01T00:33:08;5.60;;;3.03;;
13112;SDS011;6622;49.752;6.100;2022-09-01T00:35:35;4.20;;;3.03;;
13112;SDS011;6622;49.752;6.100;2022-09-01T00:38:01;3.63;;;3.00;;
13112;SDS011;6622;49.752;6.100;2022-09-01T00:40:28;4.27;;;3.33;;
13112;SDS011;6622;49.752;6.100;2022-09-01T00:42:55;4.43;;;3.50;;
13112;SDS011;6622;49.752;6.100;2022-09-01T00:45:21;6.90;;;3.80;;
13112;SDS011;6622;49.752;6.100;2022-09-01T00:47:48;5.97;;;4.07;;
13112;SDS011;6622;49.752;6.100;2022-09-01T00:50:16;6.80;;;4.23;;
13112;SDS011;6622;49.752;6.100;2022-09-01T00:52:45;6.13;;;4.20;;
13112;SDS011;6622;49.752;6.100;2022-09-01T00:55:16;6.83;;;4.53;;
13112;SDS011;6622;49.752;6.100;2022-09-01T00:57:40;5.03;;;4.27;;
13112;SDS011;6622;49.752;6.100;2022-09-01T01:00:11;5.53;;;4.27;;
13112;SDS011;6622;49.752;6.100;2022-09-01T01:02:34;4.70;;;3.83;;
13112;SDS011;6622;49.752;6.100;2022-09-01T01:05:00;6.07;;;4.03;;
13112;SDS011;6622;49.752;6.100;2022-09-01T01:07:28;4.50;;;3.53;;
13112;SDS011;6622;49.752;6.100;2022-09-01T01:09:54;6.45;;;5.07;;
13112;SDS011;6622;49.752;6.100;2022-09-01T01:12:21;5.90;;;4.13;;
13112;SDS011;6622;49.752;6.100;2022-09-01T01:14:48;5.57;;;3.83;;
13112;SDS011;6622;49.752;6.100;2022-09-01T01:17:17;4.97;;;4.47;;
13112;SDS011;6622;49.752;6.100;2022-09-01T01:19:45;4.57;;;3.80;;
13112;SDS011;6622;49.752;6.100;2022-09-01T01:22:45;7.43;;;4.03;;
13112;SDS011;6622;49.752;6.100;2022-09-01T01:25:29;4.87;;;3.73;;
13112;SDS011;6622;49.752;6.100;2022-09-01T01:28:15;6.80;;;3.83;;
13112;SDS011;6622;49.752;6.100;2022-09-01T01:30:30;4.80;;;4.00;;
13112;SDS011;6622;49.752;6.100;2022-09-01T01:32:57;5.73;;;3.97;;
13112;SDS011;6622;49.752;6.100;2022-09-01T01:35:24;5.87;;;4.40;;
13112;SDS011;6622;49.752;6.100;2022-09-01T01:37:51;8.70;;;4.20;;
13112;SDS011;6622;49.752;6.100;2022-09-01T01:40:18;4.77;;;3.40;;
13112;SDS011;6622;49.752;6.100;2022-09-01T01:42:45;6.20;;;4.23;;
13112;SDS011;6622;49.752;6.100;2022-09-01T01:45:12;5.80;;;3.83;;
13112;SDS011;6622;49.752;6.100;2022-09-01T01:47:38;7.32;;;5.60;;
13112;SDS011;6622;49.752;6.100;2022-09-01T01:50:04;5.90;;;4.53;;
13112;SDS011;6622;49.752;6.100;2022-09-01T01:52:31;4.60;;;3.97;;
13112;SDS011;6622;49.752;6.100;2022-09-01T01:54:58;5.93;;;4.10;;
13112;SDS011;6622;49.752;6.100;2022-09-01T01:57:24;4.77;;;4.27;;
13112;SDS011;6622;49.752;6.100;2022-09-01T01:59:51;9.20;;;4.33;;
13112;SDS011;6622;49.752;6.100;2022-09-01T02:02:18;5.23;;;3.80;;
13112;SDS011;6622;49.752;6.100;2022-09-01T02:04:45;4.67;;;3.73;;
13112;SDS011;6622;49.752;6.100;2022-09-01T02:07:12;5.87;;;4.27;;
13112;SDS011;6622;49.752;6.100;2022-09-01T02:09:38;6.80;;;3.83;;
13112;SDS011;6622;49.752;6.100;2022-09-01T02:12:05;6.37;;;4.77;;
13112;SDS011;6622;49.752;6.100;2022-09-01T02:14:32;4.77;;;3.60;;
13112;SDS011;6622;49.752;6.100;2022-09-01T02:16:58;11.07;;;4.27;;
13112;SDS011;6622;49.752;6.100;2022-09-01T02:19:25;6.68;;;5.32;;
13112;SDS011;6622;49.752;6.100;2022-09-01T02:21:51;6.10;;;4.50;;
13112;SDS011;6622;49.752;6.100;2022-09-01T02:24:18;5.80;;;4.40;;
13112;SDS011;6622;49.752;6.100;2022-09-01T02:26:45;5.87;;;4.37;;
13112;SDS011;6622;49.752;6.100;2022-09-01T02:29:13;7.07;;;4.00;;
13112;SDS011;6622;49.752;6.100;2022-09-01T02:31:39;5.27;;;3.67;;
13112;SDS011;6622;49.752;6.100;2022-09-01T02:34:06;7.40;;;4.20;;
13112;SDS011;6622;49.752;6.100;2022-09-01T02:36:32;6.47;;;4.23;;
13112;SDS011;6622;49.752;6.100;2022-09-01T02:38:59;5.27;;;3.90;;
13112;SDS011;6622;49.752;6.100;2022-09-01T02:41:26;4.87;;;3.57;;
13112;SDS011;6622;49.752;6.100;2022-09-01T02:43:53;5.40;;;3.57;;
13112;SDS011;6622;49.752;6.100;2022-09-01T02:46:19;5.20;;;3.90;;
13112;SDS011;6622;49.752;6.100;2022-09-01T02:48:47;4.73;;;3.83;;
13112;SDS011;6622;49.752;6.100;2022-09-01T02:51:15;4.17;;;3.77;;
13112;SDS011;6622;49.752;6.100;2022-09-01T02:53:40;7.90;;;3.93;;
13112;SDS011;6622;49.752;6.100;2022-09-01T02:56:07;5.60;;;3.57;;
13112;SDS011;6622;49.752;6.100;2022-09-01T02:58:36;5.67;;;4.30;;
13112;SDS011;6622;49.752;6.100;2022-09-01T03:01:10;4.30;;;3.50;;
13112;SDS011;6622;49.752;6.100;2022-09-01T03:03:33;7.28;;;5.22;;
13112;SDS011;6622;49.752;6.100;2022-09-01T03:05:58;6.20;;;5.07;;
13112;SDS011;6622;49.752;6.100;2022-09-01T03:08:25;6.82;;;4.97;;
13112;SDS011;6622;49.752;6.100;2022-09-01T03:10:51;5.70;;;4.87;;
13112;SDS011;6622;49.752;6.100;2022-09-01T03:13:19;5.20;;;4.47;;
13112;SDS011;6622;49.752;6.100;2022-09-01T03:15:46;7.60;;;4.13;;
13112;SDS011;6622;49.752;6.100;2022-09-01T03:18:13;5.60;;;4.13;;
13112;SDS011;6622;49.752;6.100;2022-09-01T03:20:40;6.07;;;3.87;;
13112;SDS011;6622;49.752;6.100;2022-09-01T03:23:06;5.00;;;3.90;;
13112;SDS011;6622;49.752;6.100;2022-09-01T03:25:32;4.83;;;3.67;;
13112;SDS011;6622;49.752;6.100;2022-09-01T03:27:59;6.10;;;3.93;;
13112;SDS011;6622;49.752;6.100;2022-09-01T03:30:25;7.03;;;4.43;;
13112;SDS011;6622;49.752;6.100;2022-09-01T03:32:52;6.18;;;5.15;;
13112;SDS011;6622;49.752;6.100;2022-09-01T03:35:18;6.73;;;5.60;;
13112;SDS011;6622;49.752;6.100;2022-09-01T03:37:45;6.10;;;4.77;;
13112;SDS011;6622;49.752;6.100;2022-09-01T03:40:12;4.50;;;3.67;;
13112;SDS011;6622;49.752;6.100;2022-09-01T03:42:38;6.80;;;4.13;;
13112;SDS011;6622;49.752;6.100;2022-09-01T03:45:05;3.47;;;3.17;;
13112;SDS011;6622;49.752;6.100;2022-09-01T03:47:32;5.43;;;3.77;;
13112;SDS011;6622;49.752;6.100;2022-09-01T03:49:58;4.83;;;3.93;;
13112;SDS011;6622;49.752;6.100;2022-09-01T03:52:26;4.67;;;3.70;;
13112;SDS011;6622;49.752;6.100;2022-09-01T03:54:52;4.73;;;3.90;;
13112;SDS011;6622;49.752;6.100;2022-09-01T03:57:19;6.70;;;4.07;;
13112;SDS011;6622;49.752;6.100;2022-09-01T03:59:46;5.67;;;4.07;;
13112;SDS011;6622;49.752;6.100;2022-09-01T04:02:12;6.77;;;3.73;;
13112;SDS011;6622;49.752;6.100;2022-09-01T04:04:39;5.53;;;3.30;;
13112;SDS011;6622;49.752;6.100;2022-09-01T04:07:05;5.47;;;4.27;;
13112;SDS011;6622;49.752;6.100;2022-09-01T04:09:32;6.18;;;5.12;;
13112;SDS011;6622;49.752;6.100;2022-09-01T04:11:59;8.27;;;4.10;;
13112;SDS011;6622;49.752;6.100;2022-09-01T04:14:25;8.00;;;4.43;;
13112;SDS011;6622;49.752;6.100;2022-09-01T04:16:52;5.90;;;3.60;;
13112;SDS011;6622;49.752;6.100;2022-09-01T04:19:36;3.70;;;3.30;;
13112;SDS011;6622;49.752;6.100;2022-09-01T04:22:03;5.72;;;5.03;;
13112;SDS011;6622;49.752;6.100;2022-09-01T04:24:30;4.87;;;4.00;;
13112;SDS011;6622;49.752;6.100;2022-09-01T04:26:57;5.50;;;4.17;;
13112;SDS011;6622;49.752;6.100;2022-09-01T04:29:24;7.93;;;3.90;;
13112;SDS011;6622;49.752;6.100;2022-09-01T04:31:59;7.13;;;3.70;;
13112;SDS011;6622;49.752;6.100;2022-09-01T04:34:21;7.03;;;4.37;;
13112;SDS011;6622;49.752;6.100;2022-09-01T04:36:47;7.87;;;4.10;;
13112;SDS011;6622;49.752;6.100;2022-09-01T04:39:14;6.00;;;3.27;;
13112;SDS011;6622;49.752;6.100;2022-09-01T04:41:41;5.63;;;4.13;;
13112;SDS011;6622;49.752;6.100;2022-09-01T04:44:07;5.87;;;4.03;;
13112;SDS011;6622;49.752;6.100;2022-09-01T04:46:36;6.05;;;5.12;;
13112;SDS011;6622;49.752;6.100;2022-09-01T04:49:01;6.93;;;4.33;;
13112;SDS011;6622;49.752;6.100;2022-09-01T04:51:39;4.97;;;4.03;;
13112;SDS011;6622;49.752;6.100;2022-09-01T04:54:05;5.93;;;5.27;;
13112;SDS011;6622;49.752;6.100;2022-09-01T04:56:32;7.80;;;6.00;;
13112;SDS011;6622;49.752;6.100;2022-09-01T04:58:58;10.93;;;5.37;;
13112;SDS011;6622;49.752;6.100;2022-09-01T05:01:25;5.10;;;4.50;;
13112;SDS011;6622;49.752;6.100;2022-09-01T05:03:52;7.43;;;4.70;;
13112;SDS011;6622;49.752;6.100;2022-09-01T05:06:21;5.90;;;4.47;;
13112;SDS011;6622;49.752;6.100;2022-09-01T05:08:48;7.23;;;4.23;;
13112;SDS011;6622;49.752;6.100;2022-09-01T05:11:14;5.13;;;3.80;;
13112;SDS011;6622;49.752;6.100;2022-09-01T05:13:45;6.03;;;3.97;;
13112;SDS011;6622;49.752;6.100;2022-09-01T05:16:12;6.63;;;3.77;;
13112;SDS011;6622;49.752;6.100;2022-09-01T05:18:38;5.47;;;4.37;;
13112;SDS011;6622;49.752;6.100;2022-09-01T05:21:05;7.57;;;4.90;;
13112;SDS011;6622;49.752;6.100;2022-09-01T05:23:31;5.33;;;3.97;;
13112;SDS011;6622;49.752;6.100;2022-09-01T05:25:58;6.67;;;4.47;;
13112;SDS011;6622;49.752;6.100;2022-09-01T05:28:25;5.97;;;4.33;;
13112;SDS011;6622;49.752;6.100;2022-09-01T05:30:52;5.57;;;3.90;;
13112;SDS011;6622;49.752;6.100;2022-09-01T05:33:19;5.90;;;4.57;;
13112;SDS011;6622;49.752;6.100;2022-09-01T05:35:55;4.73;;;4.23;;
13112;SDS011;6622;49.752;6.100;2022-09-01T05:38:21;5.87;;;4.30;;
13112;SDS011;6622;49.752;6.100;2022-09-01T05:40:54;4.97;;;4.47;;
13112;SDS011;6622;49.752;6.100;2022-09-01T05:43:20;5.60;;;4.37;;
13112;SDS011;6622;49.752;6.100;2022-09-01T05:45:47;6.87;;;5.13;;
13112;SDS011;6622;49.752;6.100;2022-09-01T05:48:13;6.00;;;4.57;;
13112;SDS011;6622;49.752;6.100;2022-09-01T05:50:40;9.77;;;4.47;;
13112;SDS011;6622;49.752;6.100;2022-09-01T05:53:10;5.10;;;4.27;;
13112;SDS011;6622;49.752;6.100;2022-09-01T05:55:36;6.23;;;4.50;;
13112;SDS011;6622;49.752;6.100;2022-09-01T05:58:03;7.20;;;5.10;;
13112;SDS011;6622;49.752;6.100;2022-09-01T06:00:29;6.20;;;4.40;;
13112;SDS011;6622;49.752;6.100;2022-09-01T06:02:57;5.87;;;4.90;;
13112;SDS011;6622;49.752;6.100;2022-09-01T06:05:23;6.13;;;4.50;;
13112;SDS011;6622;49.752;6.100;2022-09-01T06:07:50;5.27;;;4.60;;
13112;SDS011;6622;49.752;6.100;2022-09-01T06:10:17;6.20;;;4.50;;
13112;SDS011;6622;49.752;6.100;2022-09-01T06:12:44;7.40;;;3.57;;
13112;SDS011;6622;49.752;6.100;2022-09-01T06:15:11;3.97;;;3.53;;
13112;SDS011;6622;49.752;6.100;2022-09-01T06:17:37;4.43;;;3.70;;
13112;SDS011;6622;49.752;6.100;2022-09-01T06:20:04;3.93;;;3.20;;
13112;SDS011;6622;49.752;6.100;2022-09-01T06:22:31;4.90;;;3.40;;
13112;SDS011;6622;49.752;6.100;2022-09-01T06:24:57;4.53;;;3.22;;
13112;SDS011;6622;49.752;6.100;2022-09-01T06:27:24;4.95;;;2.97;;
13112;SDS011;6622;49.752;6.100;2022-09-01T06:29:51;2.83;;;2.50;;
13112;SDS011;6622;49.752;6.100;2022-09-01T06:32:17;5.18;;;2.75;;
13112;SDS011;6622;49.752;6.100;2022-09-01T06:34:44;2.75;;;2.40;;
13112;SDS011;6622;49.752;6.100;2022-09-01T06:37:11;3.12;;;2.62;;
13112;SDS011;6622;49.752;6.100;2022-09-01T06:39:37;3.37;;;2.70;;
13112;SDS011;6622;49.752;6.100;2022-09-01T06:42:04;2.50;;;2.30;;
13112;SDS011;6622;49.752;6.100;2022-09-01T06:44:30;2.30;;;2.10;;
13112;SDS011;6622;49.752;6.100;2022-09-01T06:46:57;2.78;;;2.37;;
13112;SDS011;6622;49.752;6.100;2022-09-01T06:49:26;2.78;;;2.58;;
13112;SDS011;6622;49.752;6.100;2022-09-01T06:51:57;3.03;;;2.33;;
13112;SDS011;6622;49.752;6.100;2022-09-01T06:54:23;2.60;;;2.30;;
13112;SDS011;6622;49.752;6.100;2022-09-01T06:56:50;4.20;;;2.03;;
13112;SDS011;6622;49.752;6.100;2022-09-01T06:59:16;2.50;;;2.30;;
13112;SDS011;6622;49.752;6.100;2022-09-01T07:01:44;2.50;;;2.30;;
13112;SDS011;6622;49.752;6.100;2022-09-01T07:04:10;2.30;;;2.10;;
13112;SDS011;6622;49.752;6.100;2022-09-01T07:06:38;5.85;;;2.47;;
13112;SDS011;6622;49.752;6.100;2022-09-01T07:09:03;2.40;;;2.20;;
13112;SDS011;6622;49.752;6.100;2022-09-01T07:11:32;2.47;;;2.28;;
13112;SDS011;6622;49.752;6.100;2022-09-01T07:14:02;2.35;;;2.15;;
13112;SDS011;6622;49.752;6.100;2022-09-01T07:16:28;2.53;;;1.92;;
13112;SDS011;6622;49.752;6.100;2022-09-01T07:18:55;2.80;;;1.95;;
13112;SDS011;6622;49.752;6.100;2022-09-01T07:21:23;2.33;;;1.90;;
13112;SDS011;6622;49.752;6.100;2022-09-01T07:23:49;2.30;;;2.10;;
13112;SDS011;6622;49.752;6.100;2022-09-01T07:26:17;3.30;;;2.30;;
13112;SDS011;6622;49.752;6.100;2022-09-01T07:28:45;2.12;;;1.92;;
13112;SDS011;6622;49.752;6.100;2022-09-01T07:31:24;6.30;;;2.12;;
13112;SDS011;6622;49.752;6.100;2022-09-01T07:33:47;2.10;;;1.90;;
13112;SDS011;6622;49.752;6.100;2022-09-01T07:36:14;5.15;;;2.03;;
13112;SDS011;6622;49.752;6.100;2022-09-01T07:38:40;2.65;;;2.00;;
13112;SDS011;6622;49.752;6.100;2022-09-01T07:41:08;3.37;;;2.28;;
13112;SDS011;6622;49.752;6.100;2022-09-01T07:43:34;2.85;;;2.00;;
13112;SDS011;6622;49.752;6.100;2022-09-01T07:46:02;3.65;;;2.28;;
13112;SDS011;6622;49.752;6.100;2022-09-01T07:48:27;2.20;;;2.00;;
13112;SDS011;6622;49.752;6.100;2022-09-01T07:50:54;2.42;;;2.17;;
13112;SDS011;6622;49.752;6.100;2022-09-01T07:53:24;2.30;;;2.10;;
13112;SDS011;6622;49.752;6.100;2022-09-01T07:55:50;2.45;;;2.00;;
13112;SDS011;6622;49.752;6.100;2022-09-01T07:58:17;2.40;;;2.20;;
13112;SDS011;6622;49.752;6.100;2022-09-01T08:00:43;2.28;;;2.08;;
13112;SDS011;6622;49.752;6.100;2022-09-01T08:03:09;2.35;;;1.95;;
13112;SDS011;6622;49.752;6.100;2022-09-01T08:05:36;2.22;;;1.70;;
13112;SDS011;6622;49.752;6.100;2022-09-01T08:08:03;3.97;;;2.15;;
13112;SDS011;6622;49.752;6.100;2022-09-01T08:10:29;3.45;;;2.08;;
13112;SDS011;6622;49.752;6.100;2022-09-01T08:12:56;2.53;;;2.00;;
13112;SDS011;6622;49.752;6.100;2022-09-01T08:15:23;2.37;;;1.90;;
13112;SDS011;6622;49.752;6.100;2022-09-01T08:17:50;3.53;;;1.90;;
13112;SDS011;6622;49.752;6.100;2022-09-01T08:20:17;4.37;;;2.37;;
13112;SDS011;6622;49.752;6.100;2022-09-01T08:22:44;3.08;;;2.55;;
13112;SDS011;6622;49.752;6.100;2022-09-01T08:25:11;2.78;;;2.15;;
13112;SDS011;6622;49.752;6.100;2022-09-01T08:27:37;3.83;;;2.20;;
13112;SDS011;6622;49.752;6.100;2022-09-01T08:30:05;2.10;;;1.90;;
13112;SDS011;6622;49.752;6.100;2022-09-01T08:32:30;2.40;;;2.15;;
13112;SDS011;6622;49.752;6.100;2022-09-01T08:34:57;2.30;;;2.10;;
13112;SDS011;6622;49.752;6.100;2022-09-01T08:37:24;4.35;;;2.33;;
13112;SDS011;6622;49.752;6.100;2022-09-01T08:39:50;3.78;;;2.45;;
13112;SDS011;6622;49.752;6.100;2022-09-01T08:42:21;4.10;;;2.17;;
13112;SDS011;6622;49.752;6.100;2022-09-01T08:44:55;3.25;;;1.75;;
13112;SDS011;6622;49.752;6.100;2022-09-01T08:47:28;2.12;;;1.92;;
13112;SDS011;6622;49.752;6.100;2022-09-01T08:49:55;2.60;;;1.92;;
13112;SDS011;6622;49.752;6.100;2022-09-01T08:52:44;2.92;;;2.28;;
13112;SDS011;6622;49.752;6.100;2022-09-01T08:54:56;2.95;;;2.40;;
13112;SDS011;6622;49.752;6.100;2022-09-01T09:00:05;3.12;;;2.17;;
13112;SDS011;6622;49.752;6.100;2022-09-01T09:05:27;2.70;;;2.20;;
13112;SDS011;6622;49.752;6.100;2022-09-01T09:08:15;2.53;;;2.20;;
13112;SDS011;6622;49.752;6.100;2022-09-01T09:15:55;2.60;;;2.37;;
13112;SDS011;6622;49.752;6.100;2022-09-01T09:21:17;3.20;;;2.15;;
13112;SDS011;6622;49.752;6.100;2022-09-01T09:24:12;4.10;;;2.72;;
13112;SDS011;6622;49.752;6.100;2022-09-01T09:26:55;2.87;;;2.30;;
13112;SDS011;6622;49.752;6.100;2022-09-01T09:29:21;2.67;;;2.08;;
13112;SDS011;6622;49.752;6.100;2022-09-01T09:31:48;2.60;;;2.40;;
13112;SDS011;6622;49.752;6.100;2022-09-01T09:34:28;3.05;;;2.35;;
13112;SDS011;6622;49.752;6.100;2022-09-01T09:36:52;4.40;;;2.45;;
13112;SDS011;6622;49.752;6.100;2022-09-01T09:39:19;3.70;;;2.55;;
13112;SDS011;6622;49.752;6.100;2022-09-01T09:44:30;3.47;;;2.00;;
13112;SDS011;6622;49.752;6.100;2022-09-01T09:46:57;2.75;;;2.20;;
13112;SDS011;6622;49.752;6.100;2022-09-01T09:49:28;4.22;;;2.40;;
13112;SDS011;6622;49.752;6.100;2022-09-01T09:51:54;2.12;;;1.90;;
13112;SDS011;6622;49.752;6.100;2022-09-01T09:54:21;3.62;;;2.50;;
13112;SDS011;6622;49.752;6.100;2022-09-01T09:56:47;2.80;;;2.30;;
13112;SDS011;6622;49.752;6.100;2022-09-01T09:59:26;3.03;;;2.58;;
13112;SDS011;6622;49.752;6.100;2022-09-01T10:01:49;2.35;;;2.15;;
13112;SDS011;6622;49.752;6.100;2022-09-01T10:04:35;3.65;;;2.40;;
13112;SDS011;6622;49.752;6.100;2022-09-01T10:07:00;2.87;;;2.58;;
13112;SDS011;6622;49.752;6.100;2022-09-01T10:11:54;2.40;;;2.20;;
13112;SDS011;6622;49.752;6.100;2022-09-01T10:14:22;4.00;;;2.53;;
13112;SDS011;6622;49.752;6.100;2022-09-01T10:16:49;2.72;;;2.33;;
13112;SDS011;6622;49.752;6.100;2022-09-01T10:19:14;2.42;;;2.22;;
13112;SDS011;6622;49.752;6.100;2022-09-01T10:21:42;4.10;;;2.60;;
13112;SDS011;6622;49.752;6.100;2022-09-01T10:24:16;2.30;;;2.10;;
13112;SDS011;6622;49.752;6.100;2022-09-01T10:26:40;2.45;;;2.22;;
13112;SDS011;6622;49.752;6.100;2022-09-01T10:29:14;2.78;;;2.20;;
13112;SDS011;6622;49.752;6.100;2022-09-01T10:31:40;3.17;;;2.67;;
13112;SDS011;6622;49.752;6.100;2022-09-01T10:34:06;3.08;;;2.47;;
13112;SDS011;6622;49.752;6.100;2022-09-01T10:36:33;4.30;;;3.08;;
13112;SDS011;6622;49.752;6.100;2022-09-01T10:39:00;2.45;;;2.25;;
13112;SDS011;6622;49.752;6.100;2022-09-01T10:41:44;3.00;;;2.70;;
13112;SDS011;6622;49.752;6.100;2022-09-01T10:44:10;2.35;;;2.10;;
13112;SDS011;6622;49.752;6.100;2022-09-01T10:49:02;5.03;;;2.80;;
13112;SDS011;6622;49.752;6.100;2022-09-01T10:53:59;2.70;;;2.35;;
13112;SDS011;6622;49.752;6.100;2022-09-01T10:56:35;3.12;;;2.15;;
13112;SDS011;6622;49.752;6.100;2022-09-01T11:04:10;4.18;;;3.00;;
13112;SDS011;6622;49.752;6.100;2022-09-01T11:06:44;3.85;;;2.40;;
13112;SDS011;6622;49.752;6.100;2022-09-01T11:12:09;4.30;;;2.70;;
13112;SDS011;6622;49.752;6.100;2022-09-01T11:14:46;3.40;;;2.47;;
13112;SDS011;6622;49.752;6.100;2022-09-01T11:20:04;3.87;;;2.58;;
13112;SDS011;6622;49.752;6.100;2022-09-01T11:22:30;4.30;;;2.67;;
13112;SDS011;6622;49.752;6.100;2022-09-01T11:25:09;3.30;;;2.83;;
13112;SDS011;6622;49.752;6.100;2022-09-01T11:30:23;3.25;;;2.90;;
13112;SDS011;6622;49.752;6.100;2022-09-01T11:32:47;4.20;;;2.90;;
13112;SDS011;6622;49.752;6.100;2022-09-01T11:35:17;4.45;;;2.80;;
13112;SDS011;6622;49.752;6.100;2022-09-01T11:37:42;4.95;;;2.92;;
13112;SDS011;6622;49.752;6.100;2022-09-01T11:40:09;3.35;;;2.50;;
13112;SDS011;6622;49.752;6.100;2022-09-01T11:42:38;2.60;;;2.37;;
13112;SDS011;6622;49.752;6.100;2022-09-01T11:45:11;3.53;;;2.70;;
13112;SDS011;6622;49.752;6.100;2022-09-01T11:47:39;4.47;;;2.42;;
13112;SDS011;6622;49.752;6.100;2022-09-01T11:52:56;3.58;;;2.60;;
13112;SDS011;6622;49.752;6.100;2022-09-01T11:57:55;3.33;;;2.22;;
13112;SDS011;6622;49.752;6.100;2022-09-01T12:00:26;3.08;;;2.78;;
13112;SDS011;6622;49.752;6.100;2022-09-01T12:02:51;2.80;;;2.50;;
13112;SDS011;6622;49.752;6.100;2022-09-01T12:05:34;2.65;;;2.45;;
13112;SDS011;6622;49.752;6.100;2022-09-01T12:08:01;2.83;;;2.53;;
13112;SDS011;6622;49.752;6.100;2022-09-01T12:10:28;3.90;;;2.60;;
13112;SDS011;6622;49.752;6.100;2022-09-01T12:15:38;2.80;;;2.50;;
13112;SDS011;6622;49.752;6.100;2022-09-01T12:18:08;2.72;;;2.50;;
13112;SDS011;6622;49.752;6.100;2022-09-01T12:20:34;4.10;;;2.40;;
13112;SDS011;6622;49.752;6.100;2022-09-01T12:23:00;4.57;;;2.60;;
13112;SDS011;6622;49.752;6.100;2022-09-01T12:25:30;3.60;;;2.35;;
13112;SDS011;6622;49.752;6.100;2022-09-01T12:27:56;2.55;;;2.30;;
13112;SDS011;6622;49.752;6.100;2022-09-01T12:30:24;2.95;;;2.62;;
13112;SDS011;6622;49.752;6.100;2022-09-01T12:32:49;2.97;;;2.60;;
13112;SDS011;6622;49.752;6.100;2022-09-01T12:35:17;3.25;;;2.55;;
13112;SDS011;6622;49.752;6.100;2022-09-01T12:37:42;3.35;;;2.47;;
13112;SDS011;6622;49.752;6.100;2022-09-01T12:40:25;2.65;;;2.40;;
13112;SDS011;6622;49.752;6.100;2022-09-01T12:42:51;2.90;;;2.33;;
13112;SDS011;6622;49.752;6.100;2022-09-01T12:48:28;4.40;;;2.60;;
13112;SDS011;6622;49.752;6.100;2022-09-01T12:50:53;2.97;;;2.30;;
13112;SDS011;6622;49.752;6.100;2022-09-01T12:53:20;3.22;;;2.62;;
13112;SDS011;6622;49.752;6.100;2022-09-01T12:55:56;2.40;;;2.20;;
13112;SDS011;6622;49.752;6.100;2022-09-01T12:58:22;2.70;;;2.50;;
13112;SDS011;6622;49.752;6.100;2022-09-01T13:01:15;2.62;;;2.40;;
13112;SDS011;6622;49.752;6.100;2022-09-01T13:03:27;3.47;;;2.55;;
13112;SDS011;6622;49.752;6.100;2022-09-01T13:05:53;5.10;;;2.75;;
13112;SDS011;6622;49.752;6.100;2022-09-01T13:08:24;4.47;;;2.50;;
13112;SDS011;6622;49.752;6.100;2022-09-01T13:10:54;2.20;;;2.00;;
13112;SDS011;6622;49.752;6.100;2022-09-01T13:13:20;3.85;;;2.28;;
13112;SDS011;6622;49.752;6.100;2022-09-01T13:15:47;2.50;;;2.30;;
13112;SDS011;6622;49.752;6.100;2022-09-01T13:18:13;3.15;;;2.33;;
13112;SDS011;6622;49.752;6.100;2022-09-01T13:20:39;3.20;;;2.65;;
13112;SDS011;6622;49.752;6.100;2022-09-01T13:23:06;2.95;;;2.67;;
13112;SDS011;6622;49.752;6.100;2022-09-01T13:25:32;3.42;;;2.47;;
13112;SDS011;6622;49.752;6.100;2022-09-01T13:27:59;2.37;;;2.17;;
13112;SDS011;6622;49.752;6.100;2022-09-01T13:30:26;2.83;;;2.33;;
13112;SDS011;6622;49.752;6.100;2022-09-01T13:32:52;2.65;;;2.33;;
13112;SDS011;6622;49.752;6.100;2022-09-01T13:35:20;2.60;;;2.40;;
13112;SDS011;6622;49.752;6.100;2022-09-01T13:37:46;3.60;;;2.75;;
13112;SDS011;6622;49.752;6.100;2022-09-01T13:40:13;3.20;;;2.40;;
13112;SDS011;6622;49.752;6.100;2022-09-01T13:42:42;5.32;;;2.60;;
13112;SDS011;6622;49.752;6.100;2022-09-01T13:45:11;3.95;;;2.47;;
13112;SDS011;6622;49.752;6.100;2022-09-01T13:47:40;3.20;;;2.70;;
13112;SDS011;6622;49.752;6.100;2022-09-01T13:50:07;2.65;;;2.45;;
13112;SDS011;6622;49.752;6.100;2022-09-01T13:52:34;3.33;;;2.33;;
13112;SDS011;6622;49.752;6.100;2022-09-01T13:55:00;4.25;;;2.47;;
13112;SDS011;6622;49.752;6.100;2022-09-01T13:57:27;2.83;;;2.37;;
13112;SDS011;6622;49.752;6.100;2022-09-01T13:59:53;2.80;;;2.60;;
13112;SDS011;6622;49.752;6.100;2022-09-01T14:02:21;2.80;;;2.20;;
13112;SDS011;6622;49.752;6.100;2022-09-01T14:04:47;2.97;;;2.15;;
13112;SDS011;6622;49.752;6.100;2022-09-01T14:07:14;2.60;;;2.15;;
13112;SDS011;6622;49.752;6.100;2022-09-01T14:09:41;2.75;;;2.17;;
13112;SDS011;6622;49.752;6.100;2022-09-01T14:12:08;3.45;;;2.42;;
13112;SDS011;6622;49.752;6.100;2022-09-01T14:14:35;2.47;;;1.95;;
13112;SDS011;6622;49.752;6.100;2022-09-01T14:17:01;4.05;;;2.30;;
13112;SDS011;6622;49.752;6.100;2022-09-01T14:19:28;4.20;;;2.62;;
13112;SDS011;6622;49.752;6.100;2022-09-01T14:21:55;2.65;;;2.37;;
13112;SDS011;6622;49.752;6.100;2022-09-01T14:24:22;3.17;;;2.47;;
13112;SDS011;6622;49.752;6.100;2022-09-01T14:26:49;2.80;;;2.40;;
13112;SDS011;6622;49.752;6.100;2022-09-01T14:29:15;2.83;;;2.28;;
13112;SDS011;6622;49.752;6.100;2022-09-01T14:31:42;2.47;;;2.28;;
13112;SDS011;6622;49.752;6.100;2022-09-01T14:34:09;2.30;;;2.03;;
13112;SDS011;6622;49.752;6.100;2022-09-01T14:36:35;3.90;;;2.37;;
13112;SDS011;6622;49.752;6.100;2022-09-01T14:39:02;4.78;;;2.47;;
13112;SDS011;6622;49.752;6.100;2022-09-01T14:41:28;2.90;;;2.30;;
13112;SDS011;6622;49.752;6.100;2022-09-01T14:43:55;3.42;;;2.25;;
13112;SDS011;6622;49.752;6.100;2022-09-01T14:46:24;5.43;;;2.40;;
13112;SDS011;6622;49.752;6.100;2022-09-01T14:48:51;2.75;;;2.55;;
13112;SDS011;6622;49.752;6.100;2022-09-01T14:51:21;3.08;;;2.33;;
13112;SDS011;6622;49.752;6.100;2022-09-01T14:53:47;3.08;;;2.25;;
13112;SDS011;6622;49.752;6.100;2022-09-01T14:56:13;2.95;;;2.33;;
13112;SDS011;6622;49.752;6.100;2022-09-01T14:58:40;2.90;;;2.58;;
13112;SDS011;6622;49.752;6.100;2022-09-01T15:01:07;2.65;;;2.33;;
13112;SDS011;6622;49.752;6.100;2022-09-01T15:03:33;2.67;;;1.98;;
13112;SDS011;6622;49.752;6.100;2022-09-01T15:06:00;2.78;;;2.33;;
13112;SDS011;6622;49.752;6.100;2022-09-01T15:08:27;3.10;;;2.22;;
13112;SDS011;6622;49.752;6.100;2022-09-01T15:10:53;6.12;;;2.08;;
13112;SDS011;6622;49.752;6.100;2022-09-01T15:13:20;3.12;;;2.10;;
13112;SDS011;6622;49.752;6.100;2022-09-01T15:15:47;4.53;;;2.42;;
13112;SDS011;6622;49.752;6.100;2022-09-01T15:18:13;3.47;;;2.10;;
13112;SDS011;6622;49.752;6.100;2022-09-01T15:20:40;3.15;;;2.30;;
13112;SDS011;6622;49.752;6.100;2022-09-01T15:23:19;2.20;;;2.00;;
13112;SDS011;6622;49.752;6.100;2022-09-01T15:25:45;2.65;;;2.33;;
13112;SDS011;6622;49.752;6.100;2022-09-01T15:28:12;2.35;;;2.10;;
13112;SDS011;6622;49.752;6.100;2022-09-01T15:30:38;7.30;;;2.25;;
13112;SDS011;6622;49.752;6.100;2022-09-01T15:33:05;3.05;;;2.30;;
13112;SDS011;6622;49.752;6.100;2022-09-01T15:35:31;3.62;;;2.33;;
13112;SDS011;6622;49.752;6.100;2022-09-01T15:37:58;2.40;;;2.20;;
13112;SDS011;6622;49.752;6.100;2022-09-01T15:40:25;3.30;;;2.30;;
13112;SDS011;6622;49.752;6.100;2022-09-01T15:42:51;2.58;;;2.28;;
13112;SDS011;6622;49.752;6.100;2022-09-01T15:45:19;4.55;;;2.00;;
13112;SDS011;6622;49.752;6.100;2022-09-01T15:47:45;2.60;;;2.40;;
13112;SDS011;6622;49.752;6.100;2022-09-01T15:50:13;3.55;;;2.67;;
13112;SDS011;6622;49.752;6.100;2022-09-01T15:52:46;2.53;;;2.33;;